createdAt,value
2022-10-17T00:01:09.900Z,13.77
2022-10-17T00:03:38.946Z,15.52
2022-10-17T00:06:08.310Z,13.75
2022-10-17T00:08:36.974Z,16.00
2022-10-17T00:11:09.313Z,14.20
2022-10-17T00:13:37.920Z,14.45
2022-10-17T00:16:07.642Z,14.27
2022-10-17T00:18:36.242Z,16.73
2022-10-17T00:21:05.123Z,15.63
2022-10-17T00:23:34.828Z,15.43
2022-10-17T00:26:06.280Z,14.82
2022-10-17T00:28:34.818Z,16.23
2022-10-17T00:31:05.856Z,14.90
2022-10-17T00:33:35.211Z,14.15
2022-10-17T00:36:06.053Z,14.40
2022-10-17T00:38:34.742Z,15.35
2022-10-17T00:41:03.472Z,14.63
2022-10-17T00:43:55.248Z,14.52
2022-10-17T00:46:24.623Z,16.38
2022-10-17T00:48:55.026Z,15.65
2022-10-17T00:51:29.630Z,15.02
2022-10-17T00:53:58.298Z,15.80
2022-10-17T00:56:26.850Z,15.30
2022-10-17T00:58:56.799Z,15.65
2022-10-17T01:01:25.411Z,14.15
2022-10-17T01:03:53.967Z,14.60
2022-10-17T01:06:22.492Z,15.85
2022-10-17T01:08:51.111Z,16.60
2022-10-17T01:11:29.983Z,15.00
2022-10-17T01:14:03.126Z,15.30
2022-10-17T01:16:39.689Z,16.42
2022-10-17T01:21:55.367Z,15.38
2022-10-17T01:24:49.408Z,14.68
2022-10-17T01:28:02.427Z,15.88
2022-10-17T01:31:00.091Z,16.95
2022-10-17T01:33:42.725Z,15.98
2022-10-17T01:36:13.768Z,15.82
2022-10-17T01:38:47.213Z,14.82
2022-10-17T01:41:20.862Z,15.25
2022-10-17T01:43:54.267Z,14.98
2022-10-17T01:46:26.317Z,14.32
2022-10-17T01:48:55.035Z,14.77
2022-10-17T01:51:26.356Z,16.20
2022-10-17T01:53:58.103Z,14.57
2022-10-17T01:56:26.821Z,14.75
2022-10-17T01:58:57.590Z,14.50
2022-10-17T02:01:27.634Z,17.27
2022-10-17T02:03:56.291Z,17.60
2022-10-17T02:06:24.774Z,14.95
2022-10-17T02:08:53.409Z,15.32
2022-10-17T02:11:23.015Z,14.75
2022-10-17T02:14:14.376Z,14.75
2022-10-17T02:16:50.059Z,16.42
2022-10-17T02:19:52.396Z,16.77
2022-10-17T02:22:29.017Z,13.82
2022-10-17T02:25:03.496Z,15.52
2022-10-17T02:27:38.220Z,15.32
2022-10-17T02:30:10.202Z,15.07
2022-10-17T02:32:46.629Z,14.30
2022-10-17T02:35:18.268Z,14.88
2022-10-17T02:37:46.858Z,15.02
2022-10-17T02:40:16.052Z,14.82
2022-10-17T02:42:46.234Z,15.75
2022-10-17T02:45:15.576Z,14.15
2022-10-17T02:47:52.554Z,14.50
2022-10-17T02:50:22.845Z,13.98
2022-10-17T02:52:54.101Z,15.27
2022-10-17T02:55:26.070Z,13.80
2022-10-17T02:57:55.802Z,13.60
2022-10-17T03:00:25.096Z,17.38
2022-10-17T03:02:55.969Z,13.45
2022-10-17T03:05:26.242Z,15.85
2022-10-17T03:07:55.069Z,14.80
2022-10-17T03:10:23.821Z,14.43
2022-10-17T03:12:52.418Z,14.95
2022-10-17T03:15:21.033Z,13.68
2022-10-17T03:17:49.778Z,15.35
2022-10-17T03:20:19.740Z,12.23
2022-10-17T03:22:48.446Z,15.00
2022-10-17T03:25:17.084Z,15.52
2022-10-17T03:27:45.940Z,14.45
2022-10-17T03:30:14.488Z,16.65
2022-10-17T03:32:43.318Z,14.05
2022-10-17T03:35:15.061Z,14.63
2022-10-17T03:37:45.256Z,15.57
2022-10-17T03:40:13.926Z,15.63
2022-10-17T03:42:42.475Z,13.70
2022-10-17T03:45:11.909Z,14.57
2022-10-17T03:47:40.575Z,13.65
2022-10-17T03:50:10.430Z,14.68
2022-10-17T03:52:39.497Z,14.30
2022-10-17T03:55:10.588Z,14.63
2022-10-17T03:57:42.157Z,14.85
2022-10-17T04:00:15.230Z,14.43
2022-10-17T04:02:45.000Z,14.90
2022-10-17T04:05:13.694Z,13.45
2022-10-17T04:07:42.370Z,14.57
2022-10-17T04:10:13.224Z,13.55
2022-10-17T04:12:41.785Z,14.55
2022-10-17T04:15:11.743Z,15.45
2022-10-17T04:17:40.329Z,14.25
2022-10-17T04:20:10.494Z,13.23
2022-10-17T04:22:39.210Z,15.63
2022-10-17T04:25:08.563Z,16.83
2022-10-17T04:27:38.672Z,15.02
2022-10-17T04:30:08.778Z,15.15
2022-10-17T04:32:39.177Z,13.35
2022-10-17T04:35:08.942Z,15.30
2022-10-17T04:37:37.499Z,13.82
2022-10-17T04:40:07.396Z,16.77
2022-10-17T04:42:35.991Z,14.27
2022-10-17T04:45:07.418Z,13.07
2022-10-17T04:47:35.978Z,15.90
2022-10-17T04:50:05.024Z,16.40
2022-10-17T04:52:33.580Z,12.90
2022-10-17T04:55:02.277Z,15.05
2022-10-17T04:57:30.845Z,14.95
2022-10-17T05:00:02.494Z,17.60
2022-10-17T05:02:33.796Z,14.07
2022-10-17T05:05:02.363Z,14.98
2022-10-17T05:07:30.944Z,13.48
2022-10-17T05:09:59.833Z,15.10
2022-10-17T05:12:28.643Z,13.40
2022-10-17T05:14:57.647Z,16.67
2022-10-17T05:17:26.243Z,13.82
2022-10-17T05:19:56.297Z,14.50
2022-10-17T05:22:24.831Z,15.45
2022-10-17T05:24:53.581Z,16.08
2022-10-17T05:27:22.086Z,15.93
2022-10-17T05:29:50.737Z,16.88
2022-10-17T05:32:19.554Z,14.70
2022-10-17T05:34:48.138Z,13.52
2022-10-17T05:37:18.162Z,16.48
2022-10-17T05:39:50.631Z,14.57
2022-10-17T05:42:20.273Z,17.08
2022-10-17T05:44:48.993Z,16.75
2022-10-17T05:47:17.709Z,17.17
2022-10-17T05:49:51.513Z,15.82
2022-10-17T05:52:22.559Z,20.65
2022-10-17T05:54:51.186Z,16.98
2022-10-17T05:57:19.944Z,19.63
2022-10-17T05:59:48.528Z,18.67
2022-10-17T06:02:17.287Z,21.73
2022-10-17T06:04:48.620Z,16.63
2022-10-17T06:07:17.202Z,16.55
2022-10-17T06:09:47.340Z,15.05
2022-10-17T06:12:26.207Z,15.20
2022-10-17T06:14:57.438Z,17.25
2022-10-17T06:17:26.214Z,16.00
2022-10-17T06:19:58.230Z,17.73
2022-10-17T06:22:27.015Z,17.92
2022-10-17T06:24:57.446Z,17.83
2022-10-17T06:27:26.078Z,16.65
2022-10-17T06:29:54.710Z,19.45
2022-10-17T06:32:23.346Z,16.20
2022-10-17T06:34:51.983Z,18.75
2022-10-17T06:37:20.583Z,17.38
2022-10-17T06:39:49.316Z,16.48
2022-10-17T06:42:19.332Z,17.27
2022-10-17T06:44:47.962Z,18.67
2022-10-17T06:47:19.247Z,19.67
2022-10-17T06:49:48.824Z,16.05
2022-10-17T06:52:17.755Z,17.48
2022-10-17T06:54:46.553Z,17.85
2022-10-17T06:57:15.191Z,16.48
2022-10-17T06:59:45.431Z,19.60
2022-10-17T07:02:14.211Z,18.88
2022-10-17T07:04:42.945Z,18.13
2022-10-17T07:07:11.742Z,15.68
2022-10-17T07:09:40.508Z,16.10
2022-10-17T07:12:09.202Z,17.60
2022-10-17T07:14:38.091Z,16.73
2022-10-17T07:17:08.312Z,16.63
2022-10-17T07:19:38.209Z,19.05
2022-10-17T07:22:07.625Z,17.40
2022-10-17T07:24:36.392Z,16.58
2022-10-17T07:27:05.135Z,19.58
2022-10-17T07:29:33.817Z,17.08
2022-10-17T07:32:04.183Z,15.80
2022-10-17T07:34:34.753Z,17.45
2022-10-17T07:37:03.376Z,19.88
2022-10-17T07:39:31.988Z,14.93
2022-10-17T07:42:03.762Z,18.50
2022-10-17T07:44:32.305Z,18.17
2022-10-17T07:47:02.146Z,15.73
2022-10-17T07:49:31.082Z,14.73
2022-10-17T07:52:01.168Z,14.80
2022-10-17T07:54:29.808Z,15.52
2022-10-17T07:56:58.426Z,15.25
2022-10-17T07:59:27.177Z,15.63
2022-10-17T08:01:57.189Z,14.95
2022-10-17T08:04:25.995Z,15.02
2022-10-17T08:07:00.628Z,14.80
2022-10-17T08:09:42.399Z,15.48
2022-10-17T08:12:11.181Z,14.88
2022-10-17T08:14:40.304Z,14.05
2022-10-17T08:17:09.002Z,14.90
2022-10-17T08:19:41.076Z,12.57
2022-10-17T08:22:09.782Z,13.55
2022-10-17T08:24:38.760Z,13.75
2022-10-17T08:27:11.720Z,12.30
2022-10-17T08:29:40.516Z,12.80
2022-10-17T08:32:10.287Z,13.43
2022-10-17T08:34:39.222Z,13.77
2022-10-17T08:37:07.817Z,14.30
2022-10-17T08:39:38.100Z,12.20
2022-10-17T08:42:34.458Z,15.23
2022-10-17T08:45:12.519Z,13.60
2022-10-17T08:47:43.589Z,18.02
2022-10-17T08:50:15.665Z,11.57
2022-10-17T08:52:46.468Z,15.27
2022-10-17T08:55:17.517Z,13.10
2022-10-17T08:57:48.957Z,12.50
2022-10-17T09:00:20.256Z,12.15
2022-10-17T09:02:59.032Z,12.75
2022-10-17T09:05:35.305Z,13.13
2022-10-17T09:08:16.649Z,12.20
2022-10-17T09:10:57.182Z,12.13
2022-10-17T09:13:49.712Z,11.50
2022-10-17T09:16:47.217Z,12.07
2022-10-17T09:19:20.568Z,13.60
2022-10-17T09:21:52.157Z,11.95
2022-10-17T09:24:26.013Z,11.95
2022-10-17T09:26:54.823Z,10.63
2022-10-17T09:29:29.712Z,10.35
2022-10-17T09:32:04.998Z,11.25
2022-10-17T09:34:33.955Z,12.00
2022-10-17T09:37:02.937Z,12.30
2022-10-17T09:39:32.124Z,11.55
2022-10-17T09:42:01.958Z,11.43
2022-10-17T09:44:34.061Z,10.45
2022-10-17T09:47:25.366Z,28.48
2022-10-17T09:49:54.010Z,10.88
2022-10-17T09:52:27.189Z,12.05
2022-10-17T09:54:58.745Z,13.00
2022-10-17T09:57:29.817Z,10.82
2022-10-17T10:00:01.261Z,12.20
2022-10-17T10:02:31.286Z,17.33
2022-10-17T10:05:04.561Z,11.18
2022-10-17T10:07:37.138Z,11.35
2022-10-17T10:10:08.294Z,12.75
2022-10-17T10:12:38.960Z,11.02
2022-10-17T10:15:34.610Z,11.80
2022-10-17T10:18:03.428Z,11.13
2022-10-17T10:20:35.106Z,11.52
2022-10-17T10:23:17.302Z,13.18
2022-10-17T10:25:55.540Z,13.65
2022-10-17T10:28:28.108Z,13.55
2022-10-17T10:30:59.114Z,13.35
2022-10-17T10:33:30.374Z,11.93
2022-10-17T10:36:01.883Z,12.57
2022-10-17T10:38:31.010Z,12.77
2022-10-17T10:41:04.003Z,12.63
2022-10-17T10:43:37.045Z,12.27
2022-10-17T10:46:18.200Z,13.40
2022-10-17T10:48:53.351Z,12.05
2022-10-17T10:51:25.449Z,11.82
2022-10-17T10:53:58.365Z,13.50
2022-10-17T10:56:30.507Z,13.52
2022-10-17T10:59:01.886Z,10.35
2022-10-17T11:01:36.468Z,9.73
2022-10-17T11:04:23.235Z,11.75
2022-10-17T11:06:55.271Z,13.40
2022-10-17T11:09:38.221Z,11.90
2022-10-17T11:12:25.444Z,10.57
2022-10-17T11:14:58.641Z,11.25
2022-10-17T11:17:34.100Z,10.35
2022-10-17T11:20:15.214Z,12.30
2022-10-17T11:22:45.910Z,10.55
2022-10-17T11:25:26.853Z,10.38
2022-10-17T11:27:56.709Z,10.18
2022-10-17T11:30:40.994Z,10.93
2022-10-17T11:33:11.356Z,9.90
2022-10-17T11:35:43.166Z,12.13
2022-10-17T11:38:19.784Z,12.32
2022-10-17T11:40:51.470Z,8.88
2022-10-17T11:43:22.735Z,12.00
2022-10-17T11:45:56.801Z,10.00
2022-10-17T11:48:30.012Z,11.45
2022-10-17T11:54:07.412Z,9.55
2022-10-17T11:56:42.674Z,9.65
2022-10-17T11:59:33.831Z,8.52
2022-10-17T12:02:05.790Z,10.07
2022-10-17T12:04:49.870Z,10.70
2022-10-17T12:07:23.349Z,8.73
2022-10-17T12:09:56.185Z,8.80
2022-10-17T12:12:29.277Z,8.85
2022-10-17T12:15:31.298Z,9.25
2022-10-17T12:18:02.674Z,9.10
2022-10-17T12:20:41.635Z,8.60
2022-10-17T12:23:26.077Z,9.43
2022-10-17T12:25:58.366Z,8.30
2022-10-17T12:28:33.037Z,9.48
2022-10-17T12:31:03.349Z,8.25
2022-10-17T12:33:35.089Z,8.93
2022-10-17T12:36:48.142Z,9.63
2022-10-17T12:39:44.177Z,8.50
2022-10-17T12:42:50.149Z,9.00
2022-10-17T12:45:51.544Z,8.20
2022-10-17T12:49:13.942Z,9.27
2022-10-17T12:52:42.470Z,9.52
2022-10-17T12:55:15.298Z,9.10
2022-10-17T12:57:50.547Z,9.32
2022-10-17T13:00:23.814Z,8.48
2022-10-17T13:02:57.661Z,8.63
2022-10-17T13:05:29.806Z,8.50
2022-10-17T13:08:01.412Z,8.68
2022-10-17T13:10:34.669Z,10.05
2022-10-17T13:13:08.541Z,8.85
2022-10-17T13:15:37.438Z,8.27
2022-10-17T13:18:06.461Z,9.10
2022-10-17T13:20:35.335Z,8.80
2022-10-17T13:23:04.251Z,8.75
2022-10-17T13:25:37.595Z,9.07
2022-10-17T13:28:14.764Z,9.05
2022-10-17T13:30:49.600Z,9.45
2022-10-17T13:33:32.131Z,8.45
2022-10-17T13:36:01.431Z,8.88
2022-10-17T13:38:32.589Z,9.55
2022-10-17T13:41:30.116Z,8.20
2022-10-17T13:43:51.799Z,8.82
2022-10-17T13:46:39.176Z,8.43
2022-10-17T13:49:16.715Z,10.60
2022-10-17T13:51:46.192Z,10.75
2022-10-17T13:54:33.858Z,8.40
2022-10-17T13:57:04.670Z,7.68
2022-10-17T13:59:39.553Z,8.65
2022-10-17T14:02:12.708Z,8.85
2022-10-17T14:05:11.828Z,7.90
2022-10-17T14:07:58.144Z,7.65
2022-10-17T14:10:27.514Z,7.95
2022-10-17T14:12:57.694Z,7.55
2022-10-17T14:15:29.180Z,7.40
2022-10-17T14:18:05.413Z,7.55
2022-10-17T14:21:08.078Z,6.35
2022-10-17T14:23:37.800Z,7.57
2022-10-17T14:26:09.734Z,7.50
2022-10-17T14:28:41.499Z,8.60
2022-10-17T14:31:31.471Z,7.65
2022-10-17T14:34:01.076Z,7.88
2022-10-17T14:36:38.783Z,6.70
2022-10-17T14:39:14.153Z,6.90
2022-10-17T14:41:44.827Z,7.32
2022-10-17T14:44:22.979Z,7.03
2022-10-17T14:46:55.461Z,7.10
2022-10-17T14:49:36.979Z,6.70
2022-10-17T14:52:31.662Z,7.57
2022-10-17T14:55:01.779Z,8.27
2022-10-17T14:57:43.163Z,6.90
2022-10-17T15:00:17.036Z,7.10
2022-10-17T15:02:46.125Z,9.70
2022-10-17T15:05:15.114Z,7.07
2022-10-17T15:07:44.131Z,7.15
2022-10-17T15:10:26.403Z,8.07
2022-10-17T15:12:59.218Z,7.00
2022-10-17T15:15:40.193Z,7.78
2022-10-17T15:18:09.247Z,7.97
2022-10-17T15:20:38.076Z,7.13
2022-10-17T15:23:06.799Z,7.10
2022-10-17T15:25:35.421Z,6.82
2022-10-17T15:28:04.248Z,7.18
2022-10-17T15:30:38.594Z,7.85
2022-10-17T15:33:09.080Z,7.45
2022-10-17T15:35:38.232Z,7.78
2022-10-17T15:38:10.022Z,8.77
2022-10-17T15:40:38.735Z,12.43
2022-10-17T15:43:07.287Z,7.15
2022-10-17T15:45:36.162Z,8.10
2022-10-17T15:48:15.849Z,7.95
2022-10-17T15:50:45.449Z,7.32
2022-10-17T15:53:14.277Z,8.23
2022-10-17T15:55:43.069Z,7.65
2022-10-17T15:58:13.783Z,9.65
2022-10-17T16:00:43.068Z,8.88
2022-10-17T16:03:14.292Z,7.72
2022-10-17T16:05:43.010Z,7.68
2022-10-17T16:08:11.849Z,8.23
2022-10-17T16:10:40.910Z,8.57
2022-10-17T16:13:14.333Z,8.95
2022-10-17T16:15:43.180Z,9.05
2022-10-17T16:18:13.469Z,7.57
2022-10-17T16:20:42.269Z,8.45
2022-10-17T16:23:13.396Z,7.70
2022-10-17T16:25:42.325Z,8.50
2022-10-17T16:28:12.017Z,9.88
2022-10-17T16:30:45.094Z,7.57
2022-10-17T16:33:15.817Z,8.10
2022-10-17T16:35:45.778Z,10.90
2022-10-17T16:38:14.492Z,21.70
2022-10-17T16:40:43.778Z,34.85
2022-10-17T16:43:13.856Z,48.05
2022-10-17T16:45:42.675Z,53.17
2022-10-17T16:48:12.254Z,50.83
2022-10-17T16:50:42.711Z,54.78
2022-10-17T16:53:11.252Z,50.03
2022-10-17T16:55:39.858Z,46.33
2022-10-17T16:58:08.467Z,59.20
2022-10-17T17:00:37.242Z,41.72
2022-10-17T17:03:06.841Z,46.78
2022-10-17T17:05:35.408Z,50.60
2022-10-17T17:08:07.952Z,48.40
2022-10-17T17:10:39.170Z,43.67
2022-10-17T17:13:08.207Z,49.28
2022-10-17T17:15:38.429Z,43.90
2022-10-17T17:18:07.383Z,36.15
2022-10-17T17:20:36.268Z,42.97
2022-10-17T17:23:06.428Z,41.20
2022-10-17T17:25:35.959Z,44.60
2022-10-17T17:28:04.852Z,33.70
2022-10-17T17:30:34.789Z,45.88
2022-10-17T17:33:03.500Z,32.95
2022-10-17T17:35:33.545Z,33.70
2022-10-17T17:38:03.186Z,35.20
2022-10-17T17:40:34.589Z,33.08
2022-10-17T17:43:03.618Z,39.72
2022-10-17T17:45:32.313Z,37.47
2022-10-17T17:48:00.883Z,36.17
2022-10-17T17:50:29.454Z,33.03
2022-10-17T17:52:58.163Z,33.78
2022-10-17T17:55:26.952Z,31.05
2022-10-17T17:57:58.787Z,33.10
2022-10-17T18:00:27.517Z,34.38
2022-10-17T18:02:56.171Z,32.00
2022-10-17T18:05:24.896Z,36.00
2022-10-17T18:07:53.532Z,31.42
2022-10-17T18:10:22.284Z,32.38
2022-10-17T18:12:50.902Z,28.15
2022-10-17T18:15:21.094Z,25.13
2022-10-17T18:17:49.615Z,32.50
2022-10-17T18:20:19.304Z,28.95
2022-10-17T18:22:47.878Z,28.02
2022-10-17T18:25:16.988Z,30.92
2022-10-17T18:27:45.658Z,26.10
2022-10-17T18:30:14.822Z,30.50
2022-10-17T18:32:44.781Z,31.83
2022-10-17T18:35:13.556Z,22.92
2022-10-17T18:40:15.767Z,28.85
2022-10-17T18:42:44.517Z,26.70
2022-10-17T18:45:13.203Z,26.35
2022-10-17T18:47:52.543Z,25.67
2022-10-17T18:50:21.297Z,29.85
2022-10-17T18:52:50.163Z,28.83
2022-10-17T18:55:20.675Z,26.45
2022-10-17T18:57:50.146Z,24.42
2022-10-17T19:00:19.109Z,26.50
2022-10-17T19:02:49.053Z,30.45
2022-10-17T19:05:17.787Z,23.67
2022-10-17T19:07:46.575Z,22.25
2022-10-17T19:10:15.222Z,26.25
2022-10-17T19:12:43.800Z,26.48
2022-10-17T19:15:12.428Z,25.33
2022-10-17T19:17:41.042Z,23.38
2022-10-17T19:20:14.260Z,21.30
2022-10-17T19:22:43.407Z,23.08
2022-10-17T19:25:12.177Z,25.58
2022-10-17T19:27:40.794Z,18.63
2022-10-17T19:30:10.981Z,20.90
2022-10-17T19:32:39.686Z,20.67
2022-10-17T19:35:11.670Z,21.77
2022-10-17T19:37:40.743Z,18.40
2022-10-17T19:40:11.276Z,20.83
2022-10-17T19:42:40.095Z,18.52
2022-10-17T19:45:10.840Z,20.42
2022-10-17T19:47:39.912Z,17.95
2022-10-17T19:50:11.038Z,21.02
2022-10-17T19:52:40.252Z,20.73
2022-10-17T19:55:09.892Z,24.13
2022-10-17T19:57:38.470Z,23.90
2022-10-17T20:00:08.553Z,22.45
2022-10-17T20:02:37.152Z,19.10
2022-10-17T20:05:21.644Z,19.67
2022-10-17T20:07:53.712Z,21.38
2022-10-17T20:10:22.799Z,17.38
2022-10-17T20:12:51.345Z,16.48
2022-10-17T20:15:20.011Z,17.25
2022-10-17T20:17:48.779Z,21.63
2022-10-17T20:20:17.437Z,16.20
2022-10-17T20:22:46.070Z,19.52
2022-10-17T20:25:16.057Z,19.20
2022-10-17T20:27:44.785Z,21.88
2022-10-17T20:30:14.555Z,16.70
2022-10-17T20:32:43.258Z,16.85
2022-10-17T20:35:12.148Z,17.70
2022-10-17T20:37:42.670Z,16.77
2022-10-17T20:43:02.360Z,15.15
2022-10-17T20:45:44.043Z,17.27
2022-10-17T20:48:19.417Z,17.85
2022-10-17T20:50:48.059Z,17.02
2022-10-17T20:53:37.087Z,18.42
2022-10-17T20:56:06.465Z,15.48
2022-10-17T20:58:36.491Z,17.63
2022-10-17T21:01:09.101Z,21.48
2022-10-17T21:03:39.933Z,18.33
2022-10-17T21:06:11.581Z,15.07
2022-10-17T21:08:40.113Z,13.80
2022-10-17T21:11:10.917Z,15.05
2022-10-17T21:13:41.153Z,17.27
2022-10-17T21:16:11.376Z,17.08
2022-10-17T21:18:40.007Z,14.60
2022-10-17T21:21:13.773Z,14.05
2022-10-17T21:23:45.505Z,16.65
2022-10-17T21:26:14.283Z,14.80
2022-10-17T21:28:45.473Z,16.58
2022-10-17T21:31:17.118Z,15.80
2022-10-17T21:33:50.896Z,15.30
2022-10-17T21:36:19.810Z,15.65
2022-10-17T21:38:50.101Z,16.50
2022-10-17T21:41:19.685Z,13.88
2022-10-17T21:43:54.280Z,15.75
2022-10-17T21:46:23.002Z,15.13
2022-10-17T21:48:52.260Z,16.25
2022-10-17T21:51:24.133Z,13.55
2022-10-17T21:53:53.509Z,14.70
2022-10-17T21:56:24.241Z,16.73
2022-10-17T21:58:54.107Z,13.63
2022-10-17T22:01:25.227Z,13.75
2022-10-17T22:03:55.662Z,17.63
2022-10-17T22:06:39.185Z,15.75
2022-10-17T22:09:09.993Z,13.32
2022-10-17T22:11:38.754Z,13.95
2022-10-17T22:14:14.290Z,14.75
2022-10-17T22:16:44.363Z,14.65
2022-10-17T22:19:13.552Z,14.90
2022-10-17T22:21:42.227Z,14.30
2022-10-17T22:24:13.775Z,14.18
2022-10-17T22:26:42.499Z,13.13
2022-10-17T22:29:12.648Z,14.25
2022-10-17T22:31:41.215Z,12.38
2022-10-17T22:34:11.246Z,12.65
2022-10-17T22:36:39.755Z,12.95
2022-10-17T22:39:08.339Z,12.65
2022-10-17T22:41:37.064Z,12.73
2022-10-17T22:44:06.218Z,12.57
2022-10-17T22:46:36.419Z,14.50
2022-10-17T22:49:05.195Z,14.88
2022-10-17T22:51:33.696Z,14.02
2022-10-17T22:54:02.447Z,13.80
2022-10-17T22:56:30.925Z,13.48
2022-10-17T22:58:59.649Z,13.35
2022-10-17T23:01:28.230Z,14.45
2022-10-17T23:03:58.502Z,13.30
2022-10-17T23:06:27.054Z,14.82
2022-10-17T23:08:55.654Z,14.73
2022-10-17T23:11:24.446Z,15.27
2022-10-17T23:13:53.115Z,12.85
2022-10-17T23:16:21.749Z,12.20
2022-10-17T23:18:50.389Z,12.82
2022-10-17T23:21:20.449Z,13.93
2022-10-17T23:23:49.258Z,15.90
2022-10-17T23:26:17.902Z,14.88
2022-10-17T23:28:46.557Z,15.55
2022-10-17T23:31:17.651Z,14.55
2022-10-17T23:33:47.343Z,13.68
2022-10-17T23:36:17.418Z,12.45
2022-10-17T23:38:48.015Z,14.00
2022-10-17T23:41:17.074Z,13.85
2022-10-17T23:43:45.954Z,12.65
2022-10-17T23:46:14.704Z,12.07
2022-10-17T23:48:43.875Z,11.70
2022-10-17T23:51:12.611Z,13.18
2022-10-17T23:53:41.668Z,12.50
2022-10-17T23:56:12.482Z,12.98
2022-10-17T23:58:41.517Z,13.50
